Time;durP1;ratioP1;P1;durP2;ratioP2;P2;SDS_P1;SDS_P2;PMS_P1;PMS_P2;Temp;Humidity;BMP_temperature;BMP_pressure;BME280_temperature;BME280_humidity;BME280_pressure;Samples;Min_cycle;Max_cycle;Signal;HPM_P1;HPM_P2
2022/04/01 00:01:11;;;;;;;36.77;9.00;;;;;;;10.10;70.61;98991.49;1723092;83;21223;-79
2022/04/01 00:04:18;;;;;;;36.58;10.25;;;;;;;10.14;70.44;98997.39;1721648;83;21196;-80
2022/04/01 00:07:24;;;;;;;50.73;11.75;;;;;;;10.14;70.32;98994.14;1722890;83;21177;-80
2022/04/01 00:10:31;;;;;;;29.65;9.35;;;;;;;10.14;70.23;99010.53;1722826;83;21192;-80
2022/04/01 00:13:37;;;;;;;29.42;9.00;;;;;;;10.16;70.07;99010.31;1722664;82;21692;-79
2022/04/01 00:16:42;;;;;;;27.87;8.95;;;;;;;10.16;69.95;98995.29;1727968;83;21190;-80
2022/04/01 00:19:49;;;;;;;30.17;9.30;;;;;;;10.17;69.82;99006.56;1726485;82;21198;-79
2022/04/01 00:22:54;;;;;;;34.40;9.00;;;;;;;10.17;69.64;99014.76;1726638;83;21193;-80
2022/04/01 00:26:00;;;;;;;31.97;9.18;;;;;;;10.16;69.56;98994.80;1726625;82;21205;-80
2022/04/01 00:29:15;;;;;;;25.12;9.08;;;;;;;10.15;69.50;99031.34;1728043;83;21198;-79
2022/04/01 00:32:12;;;;;;;30.08;9.28;;;;;;;10.15;69.46;99004.54;1728065;83;21170;-79
2022/04/01 00:35:18;;;;;;;39.00;9.25;;;;;;;10.15;69.34;98994.98;1727992;83;21194;-80
2022/04/01 00:38:25;;;;;;;26.37;8.60;;;;;;;10.15;69.22;99016.84;1727988;83;21757;-79
2022/04/01 00:41:32;;;;;;;26.65;9.70;;;;;;;10.15;69.15;98992.24;1727976;83;21190;-80
2022/04/01 00:44:40;;;;;;;27.80;9.28;;;;;;;10.14;69.08;98990.56;1726551;83;21197;-80
2022/04/01 00:47:41;;;;;;;33.90;8.83;;;;;;;10.13;69.07;98994.35;1728246;83;21194;-80
2022/04/01 00:50:34;;;;;;;37.15;8.83;;;;;;;10.10;69.01;99002.42;1727987;83;21221;-79
2022/04/01 00:53:39;;;;;;;27.35;8.33;;;;;;;10.12;68.95;98984.48;1727778;83;21217;-80
2022/04/01 00:56:46;;;;;;;29.40;8.68;;;;;;;10.12;68.84;98987.21;1706216;83;21745;-81
2022/04/01 00:59:54;;;;;;;37.30;8.75;;;;;;;10.13;68.74;98988.89;1728004;83;21744;-80
2022/04/01 01:03:01;;;;;;;22.27;8.68;;;;;;;10.15;68.59;98987.62;1727153;83;21229;-80
2022/04/01 01:06:09;;;;;;;31.52;8.98;;;;;;;10.17;68.52;98976.50;1728043;83;21784;-80
2022/04/01 01:09:17;;;;;;;36.30;9.08;;;;;;;10.16;68.37;98972.94;1727662;83;21793;-80
2022/04/01 01:12:25;;;;;;;27.07;8.48;;;;;;;10.16;68.23;98972.94;1728089;83;21245;-80
2022/04/01 01:15:25;;;;;;;35.38;8.95;;;;;;;10.15;68.12;98973.95;1719273;82;21850;-80
2022/04/01 01:18:31;;;;;;;34.05;8.58;;;;;;;10.15;68.06;98978.58;1711686;84;21189;-80
2022/04/01 01:21:37;;;;;;;37.10;8.68;;;;;;;10.14;67.97;98955.88;1711675;84;21494;-80
2022/04/01 01:24:45;;;;;;;27.20;8.90;;;;;;;10.13;67.93;98965.66;1710196;83;21204;-79
2022/04/01 01:27:50;;;;;;;34.60;8.75;;;;;;;10.12;67.99;98963.98;1711547;84;21193;-80
2022/04/01 01:30:57;;;;;;;28.60;9.15;;;;;;;10.11;67.96;98964.48;1711704;84;21193;-80
2022/04/01 01:34:04;;;;;;;28.15;8.65;;;;;;;10.11;68.00;98973.20;1711362;84;21268;-80
2022/04/01 01:37:11;;;;;;;37.35;8.98;;;;;;;10.11;68.06;98974.58;1711670;84;21748;-80
2022/04/01 01:40:18;;;;;;;38.78;9.05;;;;;;;10.12;68.12;98961.25;1710995;84;21279;-80
2022/04/01 01:43:24;;;;;;;26.55;8.78;;;;;;;10.16;68.09;98967.96;1711590;84;21185;-79
2022/04/01 01:46:31;;;;;;;32.03;9.83;;;;;;;10.17;68.03;98960.95;1711600;84;21201;-80
2022/04/01 01:49:37;;;;;;;36.03;10.63;;;;;;;10.23;67.92;98957.91;1711548;84;21193;-80
2022/04/01 01:56:06;;;;;;;31.12;9.28;;;;;;;10.33;67.85;98961.64;1710697;84;21280;-80
2022/04/01 01:59:14;;;;;;;29.67;9.08;;;;;;;10.38;67.77;98964.59;1711658;84;21236;-80
2022/04/01 02:02:20;;;;;;;40.85;8.35;;;;;;;10.43;67.73;98957.97;1711183;84;21228;-80
2022/04/01 02:05:26;;;;;;;44.30;9.53;;;;;;;10.49;67.54;98947.06;1710817;84;21197;-80
2022/04/01 02:08:31;;;;;;;28.12;7.58;;;;;;;10.56;67.30;98935.28;1711787;84;21193;-79
2022/04/01 02:11:37;;;;;;;33.70;8.08;;;;;;;10.60;67.07;98930.55;1710677;84;21232;-81
2022/04/01 02:14:43;;;;;;;37.78;8.28;;;;;;;10.63;66.97;98930.64;1711323;84;21213;-80
2022/04/01 02:17:50;;;;;;;36.25;8.15;;;;;;;10.65;66.81;98923.92;1711373;82;21232;-80
2022/04/01 02:20:57;;;;;;;36.73;8.95;;;;;;;10.66;66.69;98914.66;1711606;84;21185;-80
2022/04/01 02:24:03;;;;;;;44.23;8.80;;;;;;;10.68;66.46;98907.60;1710367;83;21196;-80
2022/04/01 02:27:09;;;;;;;29.98;8.80;;;;;;;10.71;66.29;98909.92;1711428;84;21795;-80
2022/04/01 02:30:15;;;;;;;37.38;9.58;;;;;;;10.70;66.13;98906.35;1710257;84;21732;-81
2022/04/01 02:33:40;;;;;;;44.00;7.95;;;;;;;10.71;65.89;98914.86;1711641;84;21177;-81
2022/04/01 02:36:47;;;;;;;35.60;8.13;;;;;;;10.72;65.74;98906.13;1710273;83;21244;-81
2022/04/01 02:39:55;;;;;;;30.97;7.40;;;;;;;10.73;65.66;98906.47;1710343;84;21201;-81
2022/04/01 02:43:03;;;;;;;31.45;8.23;;;;;;;10.73;65.47;98919.61;1710138;83;21196;-81
2022/04/01 02:46:10;;;;;;;29.55;10.75;;;;;;;10.75;65.35;98922.97;1710729;84;21720;-81
2022/04/01 02:49:20;;;;;;;46.10;10.82;;;;;;;10.78;65.17;98927.72;1711960;84;21481;-81
2022/04/01 02:52:27;;;;;;;35.08;8.43;;;;;;;10.77;64.93;98918.64;1711672;84;21693;-80
2022/04/01 02:55:32;;;;;;;33.70;9.08;;;;;;;10.79;64.56;98919.29;1711176;84;21755;-81
2022/04/01 02:58:38;;;;;;;33.48;9.65;;;;;;;10.81;64.28;98907.59;1711625;84;21249;-80
2022/04/01 03:01:44;;;;;;;37.08;8.95;;;;;;;10.83;64.14;98895.94;1711537;84;21808;-80
2022/04/01 03:04:52;;;;;;;28.07;7.42;;;;;;;10.83;63.96;98893.20;1711571;84;21232;-80
2022/04/01 03:07:58;;;;;;;27.55;8.30;;;;;;;10.84;63.71;98894.88;1711604;84;21195;-80
2022/04/01 03:11:06;;;;;;;32.38;8.58;;;;;;;10.85;63.55;98884.24;1711728;84;21815;-80
2022/04/01 03:14:13;;;;;;;29.45;7.95;;;;;;;10.85;63.34;98884.24;1711633;84;21732;-80
2022/04/01 03:17:30;;;;;;;30.65;7.60;;;;;;;10.84;63.11;98882.56;1670619;83;21848;-80
2022/04/01 03:20:39;;;;;;;29.18;8.30;;;;;;;10.85;63.05;98883.41;1728044;83;21737;-80
2022/04/01 03:23:47;;;;;;;37.85;9.40;;;;;;;10.86;63.01;98886.45;1726691;83;21197;-80
2022/04/01 03:26:55;;;;;;;23.70;7.62;;;;;;;10.86;62.97;98883.18;1727305;83;21217;-80
2022/04/01 03:30:02;;;;;;;47.15;8.53;;;;;;;10.85;62.95;98877.41;1700951;83;21186;-80
2022/04/01 03:33:02;;;;;;;33.87;7.70;;;;;;;10.84;62.82;98871.63;1728332;83;21169;-79
2022/04/01 03:36:13;;;;;;;34.95;7.83;;;;;;;10.83;62.80;98879.52;1727604;83;21331;-79
2022/04/01 03:39:17;;;;;;;32.35;8.50;;;;;;;10.83;62.75;98869.95;1726761;83;22535;-79
2022/04/01 03:42:23;;;;;;;41.20;8.33;;;;;;;10.83;62.84;98873.22;1726891;83;21285;-79
2022/04/01 03:45:30;;;;;;;35.40;8.33;;;;;;;10.82;62.93;98860.56;1728077;83;22516;-79
2022/04/01 03:48:44;;;;;;;42.17;9.50;;;;;;;10.77;63.03;98862.57;1727945;83;21241;-79
2022/04/01 03:51:51;;;;;;;30.75;7.80;;;;;;;10.73;63.09;98864.08;1728132;83;21245;-79
2022/04/01 03:54:59;;;;;;;37.53;8.75;;;;;;;10.71;63.08;98872.47;1726871;82;21204;-79
2022/04/01 03:58:17;;;;;;;32.08;8.50;;;;;;;10.71;62.98;98881.21;1724733;83;21225;-80
2022/04/01 04:01:42;;;;;;;33.15;7.87;;;;;;;10.71;62.97;98864.27;1727451;83;21379;-79
2022/04/01 04:04:50;;;;;;;37.00;8.48;;;;;;;10.70;62.96;98856.29;1728090;83;21209;-79
2022/04/01 04:07:56;;;;;;;33.23;8.73;;;;;;;10.71;62.81;98865.64;1727804;83;21308;-79
2022/04/01 04:10:56;;;;;;;35.40;8.53;;;;;;;10.72;62.60;98853.64;1727888;83;21185;-79
2022/04/01 04:14:13;;;;;;;35.08;9.00;;;;;;;10.77;62.37;98867.20;1726449;83;21303;-79
2022/04/01 04:17:20;;;;;;;34.23;7.87;;;;;;;10.80;62.19;98846.28;1726890;83;21355;-79
2022/04/01 04:20:45;;;;;;;39.42;8.13;;;;;;;10.85;61.68;98847.84;1727857;83;21278;-79
2022/04/01 04:23:55;;;;;;;42.23;7.92;;;;;;;10.91;61.39;98840.14;1727827;83;21189;-79
2022/04/01 04:26:59;;;;;;;;;;;;;;;10.96;61.08;98847.17;1729998;83;21197;-80
2022/04/01 04:30:17;;;;;;;33.45;7.62;;;;;;;10.99;60.96;98854.97;1726679;83;20206;-79
2022/04/01 04:33:24;;;;;;;39.27;7.55;;;;;;;10.99;60.93;98844.02;1725585;83;21157;-79
2022/04/01 04:36:46;;;;;;;29.42;7.55;;;;;;;10.99;60.99;98854.44;1727791;83;21348;-79
2022/04/01 04:39:54;;;;;;;36.68;8.18;;;;;;;11.00;60.87;98845.70;1721170;83;21202;-79
2022/04/01 04:43:00;;;;;;;32.88;7.05;;;;;;;11.00;60.91;98846.53;1705534;83;21268;-79
2022/04/01 04:46:08;;;;;;;32.33;7.50;;;;;;;11.02;60.87;98840.03;1727931;83;21744;-80
2022/04/01 04:49:14;;;;;;;29.10;8.30;;;;;;;11.04;60.80;98829.17;1728132;83;21233;-79
2022/04/01 04:52:20;;;;;;;41.48;9.95;;;;;;;11.07;60.77;98827.37;1726901;83;21777;-79
2022/04/01 04:55:27;;;;;;;39.13;8.60;;;;;;;11.13;60.54;98829.77;1727069;83;21177;-80
2022/04/01 04:58:44;;;;;;;34.78;7.47;;;;;;;11.18;60.38;98823.12;1726950;83;21762;-80
2022/04/01 05:01:56;;;;;;;30.82;7.80;;;;;;;11.25;59.91;98832.16;1728196;83;21762;-79
2022/04/01 05:05:20;;;;;;;26.57;7.95;;;;;;;11.34;59.61;98831.36;1728299;83;21201;-79
2022/04/01 05:09:25;;;;;;;36.53;8.03;;;;;;;11.43;59.28;98828.70;1687853;83;21221;-80
2022/04/01 05:13:03;;;;;;;48.65;7.75;;;;;;;11.55;58.69;98826.13;1727958;83;21174;-80
2022/04/01 05:16:20;;;;;;;42.73;7.85;;;;;;;11.71;57.68;98831.91;1692650;83;62605;-77
2022/04/01 05:19:36;;;;;;;;;;;;;;;11.91;56.57;98838.70;1713032;84;21165;-84
2022/04/01 05:22:56;;;;;;;48.15;8.08;;;;;;;12.08;55.84;98813.48;1710469;84;20196;-77
2022/04/01 05:26:07;;;;;;;33.48;7.87;;;;;;;12.22;55.13;98801.35;1710503;84;21177;-84
2022/04/01 05:29:32;;;;;;;36.93;8.10;;;;;;;12.33;54.44;98796.53;1710402;84;21204;-78
2022/04/01 05:32:45;;;;;;;34.67;7.40;;;;;;;12.46;54.13;98804.61;1710741;84;21241;-78
2022/04/01 05:35:51;;;;;;;25.45;7.12;;;;;;;12.59;53.82;98806.40;1710842;84;21711;-85
2022/04/01 05:38:57;;;;;;;37.17;7.40;;;;;;;12.73;53.40;98804.37;1710736;84;21209;-83
2022/04/01 05:42:01;;;;;;;33.10;7.42;;;;;;;12.89;53.34;98793.31;1710744;84;21779;-84
2022/04/01 05:45:09;;;;;;;41.13;8.75;;;;;;;13.05;52.46;98795.47;1708738;84;21193;-84
2022/04/01 05:48:14;;;;;;;34.43;9.63;;;;;;;13.20;52.23;98787.67;1710695;84;21249;-78
2022/04/01 05:51:20;;;;;;;39.85;9.68;;;;;;;13.35;51.98;98794.70;1710192;84;21759;-84
2022/04/01 05:54:26;;;;;;;39.80;10.65;;;;;;;13.47;51.38;98793.70;1688718;82;21193;-77
2022/04/01 05:57:32;;;;;;;37.67;7.83;;;;;;;13.62;51.25;98789.16;1688698;82;21209;-85
2022/04/01 06:00:40;;;;;;;39.18;8.30;;;;;;;13.75;51.18;98777.16;1724691;83;21743;-84
2022/04/01 06:04:07;;;;;;;47.27;8.13;;;;;;;13.88;51.13;98788.47;1713923;83;21767;-78
2022/04/01 06:07:41;;;;;;;43.00;8.48;;;;;;;13.99;50.77;98783.02;1737289;82;21691;-77
2022/04/01 06:11:13;;;;;;;51.60;8.18;;;;;;;14.08;50.48;98784.89;1751125;81;21224;-84
2022/04/01 06:15:04;;;;;;;38.50;9.08;;;;;;;14.18;50.74;98792.02;1759542;80;21684;-77
2022/04/01 06:19:08;;;;;;;40.30;7.83;;;;;;;14.28;50.93;98792.80;1719251;83;21801;-78
2022/04/01 06:22:18;;;;;;;36.70;7.70;;;;;;;14.41;51.22;98802.22;1741770;81;21748;-77
2022/04/01 06:25:26;;;;;;;40.45;8.00;;;;;;;14.59;50.80;98803.23;1710632;80;21196;-79
2022/04/01 06:28:38;;;;;;;41.60;8.05;;;;;;;14.70;50.46;98798.25;1734255;83;21211;-77
2022/04/01 06:31:42;;;;;;;43.02;8.63;;;;;;;14.80;50.31;98797.10;1747227;80;21208;-78
2022/04/01 06:35:14;;;;;;;62.15;8.95;;;;;;;14.90;50.12;98789.06;1758041;80;21172;-77
2022/04/01 06:38:33;;;;;;;64.03;9.98;;;;;;;14.99;50.41;98790.92;1747494;80;21190;-85
2022/04/01 06:41:50;;;;;;;50.88;10.08;;;;;;;15.06;49.68;98784.21;1758537;80;21204;-77
2022/04/01 06:45:16;;;;;;;60.67;8.73;;;;;;;15.08;49.84;98783.41;1748736;80;21163;-84
2022/04/01 06:48:25;;;;;;;43.42;8.75;;;;;;;15.17;49.82;98783.05;1725449;80;21691;-78
2022/04/01 06:51:34;;;;;;;36.73;9.37;;;;;;;15.25;49.65;98766.15;1717636;82;21234;-85
2022/04/01 06:54:58;;;;;;;41.83;8.25;;;;;;;15.33;49.25;98778.97;1740150;82;21379;-78
2022/04/01 06:58:26;;;;;;;45.90;9.05;;;;;;;15.40;49.12;98762.32;1687544;84;21769;-77
2022/04/01 07:01:30;;;;;;;31.17;6.80;;;;;;;15.49;49.12;98771.88;1686087;84;21195;-77
2022/04/01 07:04:34;;;;;;;40.12;7.62;;;;;;;15.64;49.19;98778.80;1682295;85;21739;-83
2022/04/01 07:07:45;;;;;;;46.35;9.03;;;;;;;15.81;49.11;98787.95;1682080;83;21213;-83
2022/04/01 07:10:49;;;;;;;39.18;8.03;;;;;;;15.95;48.53;98774.66;1686755;83;21216;-78
2022/04/01 07:13:56;;;;;;;60.80;8.48;;;;;;;16.02;48.73;98775.36;1742364;81;21159;-84
2022/04/01 07:17:06;;;;;;;57.50;8.73;;;;;;;16.09;49.06;98784.29;1763879;79;21205;-77
2022/04/01 07:20:12;;;;;;;33.25;7.83;;;;;;;16.19;48.92;98782.28;1793497;79;21161;-77
2022/04/01 07:23:20;;;;;;;39.20;7.75;;;;;;;16.28;48.71;98784.92;1774089;79;21236;-84
2022/04/01 07:26:26;;;;;;;36.00;7.85;;;;;;;16.38;49.05;98788.39;1759731;81;21181;-84
2022/04/01 07:29:31;;;;;;;43.23;8.18;;;;;;;16.45;48.86;98771.94;1776821;79;21153;-76
2022/04/01 07:32:39;;;;;;;45.60;7.62;;;;;;;16.53;48.87;98779.80;1769940;81;21174;-84
2022/04/01 07:35:50;;;;;;;52.30;9.15;;;;;;;16.59;48.78;98778.78;1743661;80;21696;-77
2022/04/01 07:39:10;;;;;;;49.05;8.88;;;;;;;16.69;48.64;98766.23;1758651;81;21114;-84
2022/04/01 07:42:15;;;;;;;44.83;9.03;;;;;;;16.78;48.64;98750.93;1739455;81;21210;-84
2022/04/01 07:45:38;;;;;;;39.13;7.37;;;;;;;16.84;48.29;98767.85;1744698;81;21177;-77
2022/04/01 07:48:44;;;;;;;33.38;8.35;;;;;;;16.86;48.73;98769.83;1737386;81;21162;-83
2022/04/01 07:51:52;;;;;;;46.88;7.40;;;;;;;16.94;48.74;98766.64;1758441;80;21208;-77
2022/04/01 07:54:58;;;;;;;48.30;9.33;;;;;;;17.04;48.55;98772.84;1775826;80;21173;-81
2022/04/01 07:58:03;;;;;;;51.42;8.53;;;;;;;17.09;48.50;98760.48;1777478;80;21212;-77
2022/04/01 08:01:29;;;;;;;54.58;9.60;;;;;;;17.21;48.89;98756.20;1777557;80;21173;-77
2022/04/01 08:04:35;;;;;;;43.65;9.25;;;;;;;17.34;48.51;98756.64;1778170;80;21730;-77
2022/04/01 08:07:41;;;;;;;46.80;8.20;;;;;;;17.42;48.48;98753.16;1750341;80;21775;-77
2022/04/01 08:10:48;;;;;;;46.48;8.88;;;;;;;17.53;48.50;98759.91;1745684;81;21202;-77
2022/04/01 08:13:54;;;;;;;45.52;8.20;;;;;;;17.68;47.77;98748.72;1738111;81;21189;-77
2022/04/01 08:17:00;;;;;;;45.23;8.93;;;;;;;17.76;47.55;98752.44;1738758;81;21711;-77
2022/04/01 08:20:07;;;;;;;46.15;8.60;;;;;;;17.83;47.41;98748.91;1698741;84;21192;-84
2022/04/01 08:23:12;;;;;;;55.98;8.05;;;;;;;17.91;47.06;98742.91;1706925;84;21545;-84
2022/04/01 08:26:18;;;;;;;49.20;8.10;;;;;;;18.00;46.92;98746.03;1706047;84;22001;-84
2022/04/01 08:29:26;;;;;;;54.83;9.20;;;;;;;18.08;46.57;98743.63;1704811;84;21169;-77
2022/04/01 08:32:34;;;;;;;35.52;8.48;;;;;;;18.19;46.08;98750.08;1706658;84;21205;-77
2022/04/01 08:35:56;;;;;;;61.63;9.63;;;;;;;18.31;46.03;98756.28;1706746;84;21236;-77
2022/04/01 08:39:01;;;;;;;57.55;8.68;;;;;;;18.47;45.45;98755.01;1680008;85;21185;-84
2022/04/01 08:42:06;;;;;;;67.55;14.93;;;;;;;18.58;45.39;98755.36;1679937;85;21837;-84
2022/04/01 08:45:13;;;;;;;54.27;8.78;;;;;;;18.67;45.02;98746.00;1715936;82;21198;-84
2022/04/01 08:48:18;;;;;;;49.20;9.15;;;;;;;18.78;44.81;98749.17;1709682;84;21233;-77
2022/04/01 08:51:17;;;;;;;86.65;11.88;;;;;;;18.83;44.85;98743.11;1709155;84;21185;-84
2022/04/01 08:54:17;;;;;;;51.02;10.03;;;;;;;18.93;45.05;98747.87;1708310;84;21276;-85
2022/04/01 08:57:26;;;;;;;60.05;10.58;;;;;;;19.06;43.63;98744.63;1720559;81;21238;-85
2022/04/01 09:00:48;;;;;;;48.63;8.45;;;;;;;19.09;44.15;98741.29;1760461;81;21143;-77
2022/04/01 09:03:56;;;;;;;44.95;8.33;;;;;;;19.14;43.66;98738.53;1737867;82;21189;-76
2022/04/01 09:07:02;;;;;;;51.70;9.15;;;;;;;19.20;43.44;98743.58;1741482;81;21220;-85
2022/04/01 09:10:14;;;;;;;51.85;10.32;;;;;;;19.23;43.24;98725.00;1737474;81;21214;-85
2022/04/01 09:13:17;;;;;;;;;;;;;;;19.28;42.99;98725.02;1754442;81;21711;-84
2022/04/01 09:16:41;;;;;;;46.40;8.93;;;;;;;19.33;42.50;98724.20;1748274;81;20233;-79
2022/04/01 09:19:45;;;;;;;63.28;9.70;;;;;;;19.40;42.58;98708.16;1772441;79;21105;-76
2022/04/01 09:22:51;;;;;;;65.00;10.43;;;;;;;19.53;42.32;98706.82;1784374;79;21194;-76
2022/04/01 09:25:58;;;;;;;51.98;8.15;;;;;;;19.58;41.96;98718.75;1789733;79;21687;-76
2022/04/01 09:29:04;;;;;;;47.58;8.98;;;;;;;19.63;41.60;98728.50;1754840;82;21166;-84
2022/04/01 09:32:05;;;;;;;46.23;8.28;;;;;;;19.65;41.85;98720.72;1753069;82;21177;-76
2022/04/01 09:35:11;;;;;;;56.85;8.55;;;;;;;19.66;41.90;98715.45;1735325;82;21154;-76
2022/04/01 09:38:18;;;;;;;42.23;8.23;;;;;;;19.74;42.23;98711.88;1735596;82;21170;-77
2022/04/01 09:41:23;;;;;;;35.05;8.78;;;;;;;19.85;41.71;98708.83;1734416;82;21138;-76
2022/04/01 09:44:45;;;;;;;52.10;10.32;;;;;;;19.98;41.94;98710.23;1723034;82;21070;-84
2022/04/01 09:47:51;;;;;;;57.90;8.95;;;;;;;20.08;41.54;98721.33;1735880;82;21204;-76
2022/04/01 09:51:04;;;;;;;52.00;9.95;;;;;;;20.17;41.48;98716.89;1735782;82;21157;-76
2022/04/01 09:54:10;;;;;;;40.48;7.72;;;;;;;20.21;40.88;98724.67;1734407;82;21217;-76
2022/04/01 09:57:35;;;;;;;44.05;8.30;;;;;;;20.26;40.94;98728.84;1734849;82;21181;-84
2022/04/01 10:00:41;;;;;;;44.03;8.78;;;;;;;20.31;41.07;98720.51;1738911;82;21193;-77
2022/04/01 10:03:47;;;;;;;47.40;9.48;;;;;;;20.40;40.93;98706.34;1734997;82;21201;-76
2022/04/01 10:06:54;;;;;;;61.00;9.63;;;;;;;20.47;39.98;98715.27;1727491;82;21183;-77
2022/04/01 10:10:01;;;;;;;39.25;8.10;;;;;;;20.46;39.81;98719.09;1730526;83;21829;-77
2022/04/01 10:13:16;;;;;;;43.17;9.25;;;;;;;20.43;40.24;98722.45;1787198;79;21137;-77
2022/04/01 10:16:22;;;;;;;70.30;9.35;;;;;;;20.42;39.86;98716.62;1795390;79;21140;-77
2022/04/01 10:19:37;;;;;;;41.60;8.48;;;;;;;20.48;40.21;98718.88;1763394;81;21210;-77
2022/04/01 10:22:45;;;;;;;68.62;11.57;;;;;;;20.54;40.03;98715.80;1752369;81;21174;-85
2022/04/01 10:26:09;;;;;;;51.23;9.48;;;;;;;20.58;39.69;98721.07;1736118;81;21703;-85
2022/04/01 10:29:14;;;;;;;37.85;8.65;;;;;;;20.62;39.71;98708.29;1674774;85;21241;-85
2022/04/01 10:32:34;;;;;;;54.58;8.73;;;;;;;20.74;38.99;98696.03;1669027;85;21263;-85
2022/04/01 10:35:43;;;;;;;47.17;8.78;;;;;;;20.77;38.98;98714.92;1697275;84;21216;-77
2022/04/01 10:38:42;;;;;;;51.63;9.23;;;;;;;20.77;38.88;98703.81;1684743;84;21520;-77
2022/04/01 10:42:16;;;;;;;42.77;10.00;;;;;;;20.77;38.35;98698.25;1690689;84;21217;-77
2022/04/01 10:45:23;;;;;;;50.28;9.25;;;;;;;20.81;38.55;98700.19;1765643;81;21146;-77
2022/04/01 10:51:39;;;;;;;53.87;9.95;;;;;;;20.96;38.10;98702.08;1746383;81;21237;-77
2022/04/01 10:54:42;;;;;;;56.60;11.93;;;;;;;20.96;38.13;98696.52;1774479;81;21158;-85
2022/04/01 10:57:47;;;;;;;51.80;10.98;;;;;;;20.99;38.03;98700.14;1773198;80;21257;-77
2022/04/01 11:01:02;;;;;;;58.10;10.43;;;;;;;21.03;38.28;98698.45;1775029;81;21122;-85
2022/04/01 11:03:52;;;;;;;40.80;8.90;;;;;;;21.08;37.46;98695.66;1747930;81;21169;-77
2022/04/01 11:07:16;;;;;;;52.98;9.23;;;;;;;21.07;37.27;98677.85;1755616;81;21158;-85
2022/04/01 11:10:19;;;;;;;55.15;11.28;;;;;;;20.98;37.53;98672.61;1685436;81;21147;-78
2022/04/01 11:13:37;;;;;;;47.17;10.48;;;;;;;20.89;37.21;98664.05;1746571;81;21181;-77
2022/04/01 11:16:56;;;;;;;50.30;10.25;;;;;;;20.84;37.29;98666.81;1734695;82;21250;-77
2022/04/01 11:20:32;;;;;;;56.88;9.48;;;;;;;20.79;37.28;98666.84;1735801;82;21743;-85
2022/04/01 11:23:34;;;;;;;57.60;9.68;;;;;;;20.82;37.42;98671.84;1756609;80;21184;-77
2022/04/01 11:26:50;;;;;;;51.98;9.88;;;;;;;20.82;37.53;98667.11;1780815;80;21208;-77
2022/04/01 11:30:26;;;;;;;57.50;9.40;;;;;;;20.82;37.05;98666.28;1778336;78;21137;-85
2022/04/01 11:33:27;;;;;;;60.52;9.78;;;;;;;20.84;37.27;98660.73;1714444;82;21260;-85
2022/04/01 11:36:32;;;;;;;57.03;9.13;;;;;;;20.95;36.76;98645.41;1759255;80;21185;-77
2022/04/01 11:39:38;;;;;;;61.37;10.43;;;;;;;21.01;36.06;98638.13;1778388;80;21217;-85
2022/04/01 11:43:03;;;;;;;41.58;9.75;;;;;;;20.98;35.35;98642.86;1778288;80;21735;-77
2022/04/01 11:46:13;;;;;;;57.80;9.73;;;;;;;20.92;35.66;98639.28;1778695;80;21455;-84
2022/04/01 11:49:19;;;;;;;61.23;10.40;;;;;;;20.89;36.27;98652.37;1778426;80;21161;-77
2022/04/01 11:52:24;;;;;;;53.05;9.13;;;;;;;20.93;35.52;98648.45;1780613;80;21743;-77
2022/04/01 11:55:49;;;;;;;66.37;11.03;;;;;;;20.99;35.47;98641.77;1781800;80;21132;-77
2022/04/01 11:58:58;;;;;;;;;;;;;;;21.11;35.37;98638.08;1761377;80;21157;-85
2022/04/01 12:02:05;;;;;;;61.68;11.22;;;;;;;21.16;35.04;98640.00;1781631;80;20219;-77
2022/04/01 12:05:12;;;;;;;90.42;13.22;;;;;;;21.18;34.49;98635.00;1759469;80;21695;-78
2022/04/01 12:11:52;;;;;;;62.65;10.88;;;;;;;21.17;34.93;98625.84;1780074;80;21200;-85
2022/04/01 12:14:57;;;;;;;71.30;12.28;;;;;;;21.19;35.14;98628.32;1786626;79;21680;-85
2022/04/01 12:18:05;;;;;;;78.95;12.75;;;;;;;21.22;33.69;98615.78;1795608;79;21760;-85
2022/04/01 12:21:12;;;;;;;63.68;12.43;;;;;;;21.13;33.83;98602.51;1786242;79;21152;-77
2022/04/01 12:24:17;;;;;;;90.80;13.70;;;;;;;21.01;33.04;98610.91;1735176;82;21727;-77
2022/04/01 12:27:23;;;;;;;99.95;14.55;;;;;;;20.91;33.68;98614.56;1738053;82;21189;-85
2022/04/01 12:30:44;;;;;;;80.97;12.88;;;;;;;20.83;33.56;98616.53;1738625;82;21161;-84
2022/04/01 12:33:48;;;;;;;;;;;;;;;20.78;34.01;98618.78;1740933;82;21539;-77
2022/04/01 12:37:01;;;;;;;79.72;13.62;;;;;;;20.73;33.19;98616.58;1695825;82;20217;-85
2022/04/01 12:40:07;;;;;;;64.17;11.85;;;;;;;20.66;33.11;98608.00;1738524;82;21158;-85
2022/04/01 12:43:13;;;;;;;74.17;13.32;;;;;;;20.60;32.84;98609.11;1738254;82;21723;-85
2022/04/01 12:46:25;;;;;;;78.70;13.13;;;;;;;20.52;33.25;98620.83;1737174;82;21161;-85
2022/04/01 12:49:33;;;;;;;72.42;11.97;;;;;;;20.51;33.60;98611.37;1738820;82;21169;-85
2022/04/01 12:52:39;;;;;;;80.50;11.63;;;;;;;20.50;32.57;98605.55;1738322;82;21177;-85
2022/04/01 12:55:45;;;;;;;71.77;12.37;;;;;;;20.48;32.08;98598.06;1738965;82;21721;-77
2022/04/01 12:58:59;;;;;;;59.05;11.05;;;;;;;20.43;32.15;98588.61;1738981;82;21173;-77
2022/04/01 13:02:12;;;;;;;95.50;12.70;;;;;;;20.43;32.56;98601.66;1738933;82;21225;-77
2022/04/01 13:05:19;;;;;;;67.37;10.72;;;;;;;20.41;32.29;98585.26;1739096;82;21479;-79
2022/04/01 13:08:38;;;;;;;65.10;11.30;;;;;;;20.37;32.52;98593.91;1738643;82;21161;-78
2022/04/01 13:11:53;;;;;;;76.25;12.75;;;;;;;20.35;32.30;98581.41;1737592;82;21232;-85
2022/04/01 13:15:12;;;;;;;67.40;10.53;;;;;;;20.32;32.42;98580.57;1738969;82;21710;-77
2022/04/01 13:18:23;;;;;;;70.20;10.50;;;;;;;20.29;32.66;98581.16;1738882;82;21197;-84
2022/04/01 13:21:29;;;;;;;72.85;13.05;;;;;;;20.24;32.33;98576.45;1716921;82;21703;-78
2022/04/01 13:24:46;;;;;;;68.15;11.48;;;;;;;20.16;32.44;98576.45;1748704;80;21180;-85
2022/04/01 13:27:56;;;;;;;81.60;12.45;;;;;;;20.09;32.74;98587.55;1749705;82;21219;-85
2022/04/01 13:31:06;;;;;;;63.38;10.95;;;;;;;20.02;32.41;98580.09;1749778;82;21165;-84
2022/04/01 13:34:09;;;;;;;56.92;10.40;;;;;;;19.94;32.70;98598.69;1749775;82;21145;-84
2022/04/01 13:37:09;;;;;;;57.50;11.40;;;;;;;19.86;32.35;98596.77;1749747;82;21173;-77
2022/04/01 13:40:02;;;;;;;73.33;10.43;;;;;;;19.83;32.51;98588.98;1749962;82;21149;-79
2022/04/01 13:43:07;;;;;;;;;;;;;;;19.80;32.63;98584.55;1752303;82;21244;-85
2022/04/01 13:46:14;;;;;;;58.65;10.80;;;;;;;19.73;32.48;98590.38;1749707;82;20605;-77
2022/04/01 13:49:19;;;;;;;67.78;10.75;;;;;;;19.66;32.65;98593.41;1749805;82;21667;-77
2022/04/01 13:52:24;;;;;;;61.48;9.48;;;;;;;19.62;32.77;98598.44;1749767;82;21204;-77
2022/04/01 13:55:30;;;;;;;52.30;10.90;;;;;;;19.57;33.11;98580.34;1749826;82;21157;-77
2022/04/01 13:58:36;;;;;;;60.67;10.60;;;;;;;19.52;33.04;98587.28;1749846;82;21205;-85
2022/04/01 14:01:42;;;;;;;68.17;10.90;;;;;;;19.48;32.70;98589.80;1749935;82;21196;-77
2022/04/01 14:04:41;;;;;;;69.55;11.05;;;;;;;19.46;32.97;98571.76;1749957;82;21182;-77
2022/04/01 14:07:48;;;;;;;81.45;12.73;;;;;;;19.43;32.06;98573.13;1749764;82;21695;-77
2022/04/01 14:10:55;;;;;;;69.05;11.25;;;;;;;19.41;31.55;98567.87;1749795;82;21164;-84
2022/04/01 14:14:03;;;;;;;56.73;10.23;;;;;;;19.43;31.60;98571.74;1749913;82;21683;-77
2022/04/01 14:17:10;;;;;;;61.28;11.30;;;;;;;19.43;31.62;98566.20;1749837;82;21189;-84
2022/04/01 14:20:16;;;;;;;87.25;11.57;;;;;;;19.41;31.96;98568.42;1749823;82;21165;-77
2022/04/01 14:23:21;;;;;;;68.57;11.93;;;;;;;19.35;31.79;98569.54;1749719;82;21691;-77
2022/04/01 14:26:26;;;;;;;89.77;14.40;;;;;;;19.29;31.91;98563.16;1775765;81;21141;-81
2022/04/01 14:32:59;;;;;;;94.05;17.30;;;;;;;19.23;31.83;98573.12;1775701;81;21197;-77
2022/04/01 14:36:04;;;;;;;92.78;18.02;;;;;;;19.18;31.73;98572.55;1775880;81;21695;-77
2022/04/01 14:39:09;;;;;;;97.50;20.97;;;;;;;19.11;31.87;98565.91;1775622;81;21185;-77
2022/04/01 14:42:15;;;;;;;98.25;21.82;;;;;;;19.05;31.29;98571.69;1775771;81;21196;-77
2022/04/01 14:45:21;;;;;;;105.32;25.05;;;;;;;18.99;31.33;98570.85;1775668;81;21181;-77
2022/04/01 14:48:29;;;;;;;94.47;21.75;;;;;;;18.94;31.30;98573.61;1775690;81;21727;-85
2022/04/01 14:51:35;;;;;;;99.07;19.02;;;;;;;18.87;30.74;98577.20;1775782;81;21177;-77
2022/04/01 14:54:39;;;;;;;86.22;18.62;;;;;;;18.81;30.46;98574.13;1775645;81;21193;-77